N615S SYEC-TTPP
Flight info
| Callsign | N615S |
|---|---|
| Flight time | 1h 21m |
| Altitude | 28000 |
| Route | VOKAV DCT POS |
| Aircraft | TBM8/L-SDFGRWY/S |
Departure
| Time | 2026-04-23 21:19 |
|---|---|
| Airport | Eugene F. Correia International Airport (SYEC) |
Arrival
| Time | 2026-04-23 22:40 |
|---|---|
| Airport | Piarco International Airport (TTPP) |
| Time | Latitude | Longitude | Altitude | Speed | Heading |
|---|---|---|---|---|---|
| 2026-04-23 21:14 | 6.80441 | -58.10593 | 6 ft | 0 kts | 347° |
| 2026-04-23 21:15 | 6.80484 | -58.10622 | 5 ft | 14 kts | 322° |
| 2026-04-23 21:16 | 6.80572 | -58.10687 | 3 ft | 14 kts | 322° |
| 2026-04-23 21:16 | 6.80607 | -58.10744 | 3 ft | 8 kts | 228° |
| 2026-04-23 21:16 | 6.80549 | -58.10817 | 5 ft | 22 kts | 231° |
| 2026-04-23 21:16 | 6.80438 | -58.10962 | 6 ft | 26 kts | 232° |
| 2026-04-23 21:17 | 6.80353 | -58.11094 | 8 ft | 20 kts | 231° |
| 2026-04-23 21:17 | 6.80272 | -58.11198 | 6 ft | 15 kts | 233° |
| 2026-04-23 21:17 | 6.80245 | -58.11211 | 6 ft | 0 kts | 138° |
| 2026-04-23 21:17 | 6.80243 | -58.11204 | 6 ft | 5 kts | 76° |
| 2026-04-23 21:18 | 6.80313 | -58.11124 | 8 ft | 35 kts | 52° |
| 2026-04-23 21:18 | 6.80565 | -58.10790 | 15 ft | 83 kts | 52° |
| 2026-04-23 21:18 | 6.80980 | -58.10290 | 237 ft | 94 kts | 48° |
| 2026-04-23 21:18 | 6.81467 | -58.09815 | 591 ft | 99 kts | 33° |
| 2026-04-23 21:19 | 6.82219 | -58.09830 | 795 ft | 128 kts | 331° |
| 2026-04-23 21:19 | 6.82757 | -58.10523 | 1240 ft | 126 kts | 294° |
| 2026-04-23 21:19 | 6.83090 | -58.11365 | 1551 ft | 139 kts | 290° |
| 2026-04-23 21:19 | 6.83465 | -58.12348 | 1769 ft | 157 kts | 290° |
| 2026-04-23 21:20 | 6.83841 | -58.13381 | 2210 ft | 156 kts | 290° |
| 2026-04-23 21:20 | 6.84230 | -58.14410 | 2588 ft | 158 kts | 291° |
| 2026-04-23 21:20 | 6.84626 | -58.15431 | 3020 ft | 155 kts | 291° |
| 2026-04-23 21:20 | 6.85005 | -58.16438 | 3406 ft | 155 kts | 291° |
| 2026-04-23 21:21 | 6.85383 | -58.17473 | 3790 ft | 157 kts | 290° |
| 2026-04-23 21:21 | 6.85755 | -58.18511 | 4184 ft | 158 kts | 290° |
| 2026-04-23 21:21 | 6.86124 | -58.19550 | 4547 ft | 161 kts | 290° |
| 2026-04-23 21:21 | 6.86534 | -58.20608 | 4912 ft | 161 kts | 303° |
| 2026-04-23 21:22 | 6.87295 | -58.21427 | 5290 ft | 160 kts | 322° |
| 2026-04-23 21:22 | 6.88166 | -58.22125 | 5683 ft | 160 kts | 324° |
| 2026-04-23 21:22 | 6.89038 | -58.22824 | 6059 ft | 160 kts | 323° |
| 2026-04-23 21:22 | 6.89913 | -58.23538 | 6407 ft | 163 kts | 323° |
| 2026-04-23 21:23 | 6.90783 | -58.24254 | 6761 ft | 163 kts | 322° |
| 2026-04-23 21:23 | 6.91663 | -58.24983 | 7113 ft | 165 kts | 323° |
| 2026-04-23 21:23 | 6.92558 | -58.25717 | 7466 ft | 167 kts | 323° |
| 2026-04-23 21:23 | 6.93456 | -58.26456 | 7841 ft | 167 kts | 322° |
| 2026-04-23 21:24 | 6.94350 | -58.27196 | 8208 ft | 167 kts | 322° |
| 2026-04-23 21:24 | 6.95260 | -58.27950 | 8554 ft | 169 kts | 322° |
| 2026-04-23 21:24 | 6.96164 | -58.28698 | 8934 ft | 169 kts | 322° |
| 2026-04-23 21:24 | 6.97067 | -58.29448 | 9283 ft | 170 kts | 322° |
| 2026-04-23 21:25 | 6.97988 | -58.30211 | 9625 ft | 173 kts | 322° |
| 2026-04-23 21:25 | 6.98918 | -58.30983 | 9973 ft | 173 kts | 322° |
| 2026-04-23 21:25 | 6.99848 | -58.31755 | 10284 ft | 174 kts | 322° |
| 2026-04-23 21:25 | 7.00791 | -58.32530 | 10603 ft | 175 kts | 323° |
| 2026-04-23 21:26 | 7.01726 | -58.33298 | 10919 ft | 175 kts | 322° |
| 2026-04-23 21:26 | 7.02665 | -58.34071 | 11256 ft | 175 kts | 322° |
| 2026-04-23 21:26 | 7.03609 | -58.34851 | 11572 ft | 176 kts | 323° |
| 2026-04-23 21:26 | 7.04553 | -58.35633 | 11910 ft | 175 kts | 322° |
| 2026-04-23 21:27 | 7.05495 | -58.36413 | 12238 ft | 176 kts | 323° |
| 2026-04-23 21:27 | 7.06447 | -58.37201 | 12554 ft | 177 kts | 323° |
| 2026-04-23 21:27 | 7.07405 | -58.37993 | 12883 ft | 178 kts | 322° |
| 2026-04-23 21:27 | 7.08353 | -58.38778 | 13195 ft | 179 kts | 323° |
| 2026-04-23 21:28 | 7.09318 | -58.39576 | 13517 ft | 179 kts | 323° |
| 2026-04-23 21:28 | 7.10283 | -58.40378 | 13816 ft | 180 kts | 322° |
| 2026-04-23 21:28 | 7.11248 | -58.41179 | 14105 ft | 180 kts | 323° |
| 2026-04-23 21:28 | 7.12204 | -58.41969 | 14384 ft | 180 kts | 322° |
| 2026-04-23 21:29 | 7.13177 | -58.42774 | 14656 ft | 181 kts | 322° |
| 2026-04-23 21:29 | 7.14154 | -58.43584 | 14936 ft | 182 kts | 322° |
| 2026-04-23 21:29 | 7.14806 | -58.44125 | 15121 ft | 182 kts | 322° |
| 2026-04-23 21:29 | 7.15787 | -58.44938 | 15400 ft | 183 kts | 321° |
| 2026-04-23 21:30 | 7.16775 | -58.45757 | 15679 ft | 183 kts | 322° |
| 2026-04-23 21:30 | 7.17757 | -58.46571 | 15963 ft | 183 kts | 322° |
| 2026-04-23 21:30 | 7.18742 | -58.47387 | 16237 ft | 183 kts | 322° |
| 2026-04-23 21:30 | 7.19717 | -58.48194 | 16514 ft | 184 kts | 321° |
| 2026-04-23 21:31 | 7.20707 | -58.49013 | 16806 ft | 184 kts | 321° |
| 2026-04-23 21:31 | 7.21699 | -58.49836 | 17061 ft | 185 kts | 321° |
| 2026-04-23 21:31 | 7.22688 | -58.50657 | 17329 ft | 185 kts | 321° |
| 2026-04-23 21:31 | 7.23688 | -58.51485 | 17623 ft | 185 kts | 320° |
| 2026-04-23 21:32 | 7.24685 | -58.52312 | 17871 ft | 186 kts | 321° |
| 2026-04-23 21:32 | 7.25673 | -58.53131 | 18148 ft | 186 kts | 320° |
| 2026-04-23 21:32 | 7.26670 | -58.53958 | 18398 ft | 185 kts | 321° |
| 2026-04-23 21:32 | 7.27673 | -58.54790 | 18591 ft | 188 kts | 321° |
| 2026-04-23 21:33 | 7.28684 | -58.55630 | 18804 ft | 189 kts | 321° |
| 2026-04-23 21:33 | 7.29705 | -58.56476 | 19028 ft | 190 kts | 321° |
| 2026-04-23 21:33 | 7.30733 | -58.57331 | 19220 ft | 192 kts | 321° |
| 2026-04-23 21:33 | 7.31755 | -58.58179 | 19447 ft | 192 kts | 321° |
| 2026-04-23 21:34 | 7.32790 | -58.59039 | 19672 ft | 192 kts | 322° |
| 2026-04-23 21:34 | 7.33831 | -58.59902 | 19870 ft | 194 kts | 322° |
| 2026-04-23 21:34 | 7.34861 | -58.60756 | 20092 ft | 195 kts | 322° |
| 2026-04-23 21:34 | 7.35909 | -58.61625 | 20305 ft | 195 kts | 322° |
| 2026-04-23 21:35 | 7.36961 | -58.62498 | 20507 ft | 197 kts | 322° |
| 2026-04-23 21:35 | 7.38022 | -58.63378 | 20724 ft | 197 kts | 323° |
| 2026-04-23 21:35 | 7.39088 | -58.64263 | 20917 ft | 199 kts | 322° |
| 2026-04-23 21:35 | 7.40160 | -58.65152 | 21120 ft | 200 kts | 322° |
| 2026-04-23 21:36 | 7.42342 | -58.66958 | 21471 ft | 205 kts | 322° |
| 2026-04-23 21:36 | 7.43437 | -58.67867 | 21714 ft | 203 kts | 323° |
| 2026-04-23 21:36 | 7.44525 | -58.68774 | 21959 ft | 202 kts | 323° |
| 2026-04-23 21:37 | 7.45602 | -58.69674 | 22205 ft | 200 kts | 323° |
| 2026-04-23 21:37 | 7.46671 | -58.70566 | 22454 ft | 198 kts | 323° |
| 2026-04-23 21:37 | 7.47726 | -58.71446 | 22705 ft | 195 kts | 323° |
| 2026-04-23 21:37 | 7.48764 | -58.72313 | 22957 ft | 192 kts | 323° |
| 2026-04-23 21:38 | 7.49791 | -58.73172 | 23163 ft | 192 kts | 323° |
| 2026-04-23 21:38 | 7.50812 | -58.74021 | 23344 ft | 193 kts | 324° |
| 2026-04-23 21:38 | 7.51854 | -58.74883 | 23516 ft | 194 kts | 324° |
| 2026-04-23 21:38 | 7.52896 | -58.75747 | 23667 ft | 194 kts | 324° |
| 2026-04-23 21:39 | 7.53945 | -58.76617 | 23821 ft | 195 kts | 324° |
| 2026-04-23 21:39 | 7.54997 | -58.77490 | 23962 ft | 196 kts | 323° |
| 2026-04-23 21:39 | 7.56038 | -58.78358 | 24175 ft | 192 kts | 324° |
| 2026-04-23 21:39 | 7.57043 | -58.79200 | 24388 ft | 187 kts | 323° |
| 2026-04-23 21:40 | 7.58035 | -58.80036 | 24560 ft | 185 kts | 322° |
| 2026-04-23 21:40 | 7.59032 | -58.80870 | 24685 ft | 186 kts | 323° |
| 2026-04-23 21:40 | 7.60035 | -58.81704 | 24811 ft | 187 kts | 323° |
| 2026-04-23 21:40 | 7.61042 | -58.82539 | 24941 ft | 188 kts | 324° |
| 2026-04-23 21:41 | 7.62055 | -58.83380 | 25066 ft | 188 kts | 323° |
| 2026-04-23 21:41 | 7.63058 | -58.84212 | 25188 ft | 189 kts | 324° |
| 2026-04-23 21:41 | 7.64076 | -58.85057 | 25317 ft | 190 kts | 323° |
| 2026-04-23 21:41 | 7.65099 | -58.85908 | 25434 ft | 191 kts | 323° |
| 2026-04-23 21:42 | 7.66127 | -58.86762 | 25563 ft | 191 kts | 323° |
| 2026-04-23 21:42 | 7.67155 | -58.87618 | 25700 ft | 191 kts | 323° |
| 2026-04-23 21:42 | 7.68173 | -58.88464 | 25809 ft | 192 kts | 323° |
| 2026-04-23 21:42 | 7.69211 | -58.89326 | 25929 ft | 193 kts | 322° |
| 2026-04-23 21:43 | 7.70250 | -58.90190 | 26042 ft | 194 kts | 323° |
| 2026-04-23 21:43 | 7.71297 | -58.91061 | 26152 ft | 195 kts | 323° |
| 2026-04-23 21:43 | 7.72348 | -58.91936 | 26274 ft | 196 kts | 323° |
| 2026-04-23 21:43 | 7.73387 | -58.92800 | 26406 ft | 195 kts | 323° |
| 2026-04-23 21:44 | 7.74444 | -58.93682 | 26515 ft | 196 kts | 322° |
| 2026-04-23 21:44 | 7.75488 | -58.94551 | 26631 ft | 197 kts | 322° |
| 2026-04-23 21:44 | 7.76546 | -58.95432 | 26762 ft | 197 kts | 322° |
| 2026-04-23 21:44 | 7.77608 | -58.96316 | 26855 ft | 199 kts | 323° |
| 2026-04-23 21:45 | 7.78672 | -58.97201 | 27013 ft | 196 kts | 323° |
| 2026-04-23 21:45 | 7.79717 | -58.98074 | 27178 ft | 193 kts | 322° |
| 2026-04-23 21:45 | 7.80739 | -58.98934 | 27345 ft | 190 kts | 322° |
| 2026-04-23 21:45 | 7.81744 | -58.99779 | 27514 ft | 185 kts | 321° |
| 2026-04-23 21:46 | 7.82713 | -59.00591 | 27679 ft | 181 kts | 321° |
| 2026-04-23 21:46 | 7.83665 | -59.01393 | 27843 ft | 175 kts | 321° |
| 2026-04-23 21:46 | 7.84579 | -59.02167 | 28000 ft | 169 kts | 320° |
| 2026-04-23 21:46 | 7.85499 | -59.02944 | 27964 ft | 176 kts | 321° |
| 2026-04-23 21:47 | 7.86467 | -59.03735 | 27938 ft | 182 kts | 322° |
| 2026-04-23 21:47 | 7.87476 | -59.04548 | 27933 ft | 188 kts | 323° |
| 2026-04-23 21:47 | 7.88497 | -59.05376 | 27930 ft | 192 kts | 323° |
| 2026-04-23 21:47 | 7.89541 | -59.06230 | 27925 ft | 192 kts | 323° |
| 2026-04-23 21:48 | 7.90566 | -59.07080 | 27920 ft | 190 kts | 322° |
| 2026-04-23 21:48 | 7.91575 | -59.07928 | 27916 ft | 188 kts | 321° |
| 2026-04-23 21:48 | 7.92572 | -59.08769 | 27908 ft | 185 kts | 321° |
| 2026-04-23 21:48 | 7.93560 | -59.09605 | 27907 ft | 185 kts | 321° |
| 2026-04-23 21:49 | 7.94556 | -59.10442 | 27914 ft | 187 kts | 322° |
| 2026-04-23 21:49 | 7.95553 | -59.11272 | 27921 ft | 189 kts | 322° |
| 2026-04-23 21:49 | 7.96576 | -59.12120 | 27923 ft | 190 kts | 322° |
| 2026-04-23 21:49 | 7.97605 | -59.12972 | 27916 ft | 192 kts | 322° |
| 2026-04-23 21:50 | 7.98645 | -59.13833 | 27924 ft | 194 kts | 322° |
| 2026-04-23 21:50 | 7.99682 | -59.14695 | 27924 ft | 196 kts | 322° |
| 2026-04-23 21:50 | 8.00745 | -59.15577 | 27918 ft | 199 kts | 322° |
| 2026-04-23 21:50 | 8.01828 | -59.16476 | 27809 ft | 208 kts | 322° |
| 2026-04-23 21:51 | 8.02994 | -59.17435 | 27570 ft | 223 kts | 322° |
| 2026-04-23 21:51 | 8.04241 | -59.18454 | 27340 ft | 238 kts | 322° |
| 2026-04-23 21:51 | 8.05564 | -59.19537 | 27113 ft | 251 kts | 322° |
| 2026-04-23 21:51 | 8.06954 | -59.20683 | 26879 ft | 263 kts | 323° |
| 2026-04-23 21:52 | 8.08386 | -59.21868 | 26658 ft | 274 kts | 322° |
| 2026-04-23 21:52 | 8.09892 | -59.23120 | 26431 ft | 284 kts | 322° |
| 2026-04-23 21:52 | 8.11441 | -59.24412 | 26202 ft | 292 kts | 322° |
| 2026-04-23 21:52 | 8.13029 | -59.25738 | 25972 ft | 299 kts | 322° |
| 2026-04-23 21:53 | 8.14631 | -59.27079 | 25744 ft | 305 kts | 322° |
| 2026-04-23 21:53 | 8.16283 | -59.28461 | 25512 ft | 311 kts | 321° |
| 2026-04-23 21:53 | 8.17967 | -59.29869 | 25284 ft | 316 kts | 322° |
| 2026-04-23 21:53 | 8.19668 | -59.31291 | 25057 ft | 320 kts | 322° |
| 2026-04-23 21:54 | 8.21394 | -59.32736 | 24828 ft | 323 kts | 322° |
| 2026-04-23 21:54 | 8.23118 | -59.34178 | 24604 ft | 326 kts | 322° |
| 2026-04-23 21:54 | 8.24878 | -59.35652 | 24383 ft | 329 kts | 321° |
| 2026-04-23 21:54 | 8.26644 | -59.37129 | 24160 ft | 331 kts | 322° |
| 2026-04-23 21:55 | 8.28419 | -59.38614 | 23976 ft | 331 kts | 321° |
| 2026-04-23 21:55 | 8.30181 | -59.40090 | 23947 ft | 325 kts | 322° |
| 2026-04-23 21:55 | 8.31891 | -59.41518 | 23932 ft | 320 kts | 322° |
| 2026-04-23 21:55 | 8.33604 | -59.42946 | 23924 ft | 316 kts | 322° |
| 2026-04-23 21:56 | 8.35294 | -59.44354 | 23919 ft | 312 kts | 322° |
| 2026-04-23 21:56 | 8.36961 | -59.45745 | 23918 ft | 308 kts | 322° |
| 2026-04-23 21:56 | 8.38588 | -59.47104 | 23917 ft | 305 kts | 322° |
| 2026-04-23 21:56 | 8.40224 | -59.48471 | 23917 ft | 303 kts | 322° |
| 2026-04-23 21:57 | 8.41845 | -59.49824 | 23914 ft | 301 kts | 322° |
| 2026-04-23 21:57 | 8.43451 | -59.51167 | 23914 ft | 299 kts | 322° |
| 2026-04-23 21:57 | 8.45052 | -59.52505 | 23915 ft | 297 kts | 322° |
| 2026-04-23 21:57 | 8.46642 | -59.53837 | 23915 ft | 296 kts | 322° |
| 2026-04-23 21:58 | 8.48225 | -59.55161 | 23918 ft | 294 kts | 322° |
| 2026-04-23 21:58 | 8.49803 | -59.56480 | 23919 ft | 293 kts | 322° |
| 2026-04-23 21:58 | 8.51359 | -59.57779 | 23919 ft | 292 kts | 322° |
| 2026-04-23 21:58 | 8.52927 | -59.59091 | 23919 ft | 292 kts | 322° |
| 2026-04-23 21:59 | 8.54490 | -59.60399 | 23918 ft | 291 kts | 321° |
| 2026-04-23 21:59 | 8.56051 | -59.61706 | 23918 ft | 290 kts | 321° |
| 2026-04-23 21:59 | 8.57603 | -59.63005 | 23920 ft | 289 kts | 322° |
| 2026-04-23 22:00 | 8.60688 | -59.65588 | 23917 ft | 288 kts | 321° |
| 2026-04-23 22:00 | 8.62216 | -59.66868 | 23920 ft | 288 kts | 321° |
| 2026-04-23 22:00 | 8.63759 | -59.68159 | 23921 ft | 287 kts | 321° |
| 2026-04-23 22:00 | 8.65301 | -59.69451 | 23921 ft | 287 kts | 322° |
| 2026-04-23 22:01 | 8.66845 | -59.70744 | 23921 ft | 287 kts | 321° |
| 2026-04-23 22:01 | 8.68382 | -59.72030 | 23920 ft | 286 kts | 321° |
| 2026-04-23 22:01 | 8.69898 | -59.73300 | 23920 ft | 286 kts | 322° |
| 2026-04-23 22:01 | 8.71440 | -59.74593 | 23919 ft | 286 kts | 321° |
| 2026-04-23 22:02 | 8.72954 | -59.75861 | 23919 ft | 286 kts | 321° |
| 2026-04-23 22:02 | 8.74486 | -59.77145 | 23919 ft | 286 kts | 321° |
| 2026-04-23 22:02 | 8.76017 | -59.78429 | 23919 ft | 286 kts | 321° |
| 2026-04-23 22:02 | 8.77551 | -59.79714 | 23918 ft | 285 kts | 322° |
| 2026-04-23 22:03 | 8.79085 | -59.81000 | 23918 ft | 285 kts | 321° |
| 2026-04-23 22:03 | 8.80596 | -59.82267 | 23920 ft | 285 kts | 322° |
| 2026-04-23 22:03 | 8.82127 | -59.83550 | 23918 ft | 285 kts | 321° |
| 2026-04-23 22:03 | 8.83656 | -59.84832 | 23919 ft | 285 kts | 321° |
| 2026-04-23 22:04 | 8.85185 | -59.86114 | 23919 ft | 285 kts | 321° |
| 2026-04-23 22:04 | 8.86718 | -59.87400 | 23918 ft | 285 kts | 321° |
| 2026-04-23 22:04 | 8.88245 | -59.88681 | 23920 ft | 285 kts | 322° |
| 2026-04-23 22:04 | 8.89752 | -59.89945 | 23920 ft | 285 kts | 322° |
| 2026-04-23 22:05 | 8.91282 | -59.91228 | 23922 ft | 285 kts | 321° |
| 2026-04-23 22:05 | 8.92797 | -59.92519 | 23919 ft | 285 kts | 320° |
| 2026-04-23 22:05 | 8.94260 | -59.93873 | 23919 ft | 285 kts | 317° |
| 2026-04-23 22:05 | 8.95698 | -59.95258 | 23918 ft | 285 kts | 317° |
| 2026-04-23 22:06 | 8.97111 | -59.96628 | 23916 ft | 284 kts | 317° |
| 2026-04-23 22:06 | 8.98545 | -59.98013 | 23915 ft | 284 kts | 317° |
| 2026-04-23 22:06 | 8.99979 | -59.99389 | 23917 ft | 284 kts | 318° |
| 2026-04-23 22:06 | 9.01421 | -60.00766 | 23917 ft | 284 kts | 318° |
| 2026-04-23 22:07 | 9.02866 | -60.02139 | 23919 ft | 284 kts | 318° |
| 2026-04-23 22:07 | 9.04292 | -60.03492 | 23919 ft | 284 kts | 318° |
| 2026-04-23 22:07 | 9.05737 | -60.04863 | 23920 ft | 284 kts | 318° |
| 2026-04-23 22:07 | 9.07181 | -60.06232 | 23918 ft | 284 kts | 318° |
| 2026-04-23 22:08 | 9.08622 | -60.07597 | 23917 ft | 284 kts | 318° |
| 2026-04-23 22:08 | 9.10068 | -60.08969 | 23916 ft | 284 kts | 318° |
| 2026-04-23 22:08 | 9.11499 | -60.10325 | 23917 ft | 284 kts | 318° |
| 2026-04-23 22:08 | 9.12945 | -60.11695 | 23917 ft | 284 kts | 318° |
| 2026-04-23 22:09 | 9.14387 | -60.13061 | 23920 ft | 284 kts | 318° |
| 2026-04-23 22:09 | 9.15828 | -60.14425 | 23920 ft | 284 kts | 318° |
| 2026-04-23 22:09 | 9.17250 | -60.15773 | 23919 ft | 284 kts | 318° |
| 2026-04-23 22:09 | 9.18693 | -60.17141 | 23920 ft | 284 kts | 318° |
| 2026-04-23 22:10 | 9.20137 | -60.18506 | 23923 ft | 283 kts | 318° |
| 2026-04-23 22:10 | 9.21573 | -60.19869 | 23922 ft | 283 kts | 318° |
| 2026-04-23 22:10 | 9.23010 | -60.21233 | 23922 ft | 282 kts | 318° |
| 2026-04-23 22:10 | 9.24430 | -60.22582 | 23922 ft | 282 kts | 318° |
| 2026-04-23 22:11 | 9.25863 | -60.23940 | 23920 ft | 282 kts | 318° |
| 2026-04-23 22:11 | 9.27295 | -60.25298 | 23920 ft | 281 kts | 318° |
| 2026-04-23 22:11 | 9.28726 | -60.26656 | 23920 ft | 281 kts | 318° |
| 2026-04-23 22:11 | 9.30157 | -60.28015 | 23920 ft | 281 kts | 318° |
| 2026-04-23 22:12 | 9.31565 | -60.29351 | 23916 ft | 281 kts | 318° |
| 2026-04-23 22:12 | 9.32992 | -60.30704 | 23915 ft | 281 kts | 318° |
| 2026-04-23 22:12 | 9.34420 | -60.32060 | 23921 ft | 281 kts | 318° |
| 2026-04-23 22:12 | 9.35847 | -60.33415 | 23921 ft | 281 kts | 318° |
| 2026-04-23 22:13 | 9.37272 | -60.34768 | 23921 ft | 281 kts | 318° |
| 2026-04-23 22:13 | 9.38702 | -60.36125 | 23920 ft | 281 kts | 318° |
| 2026-04-23 22:13 | 9.40129 | -60.37479 | 23919 ft | 281 kts | 318° |
| 2026-04-23 22:13 | 9.41552 | -60.38832 | 23919 ft | 281 kts | 318° |
| 2026-04-23 22:14 | 9.42978 | -60.40188 | 23919 ft | 281 kts | 318° |
| 2026-04-23 22:14 | 9.44388 | -60.41526 | 23918 ft | 281 kts | 318° |
| 2026-04-23 22:14 | 9.45814 | -60.42880 | 23919 ft | 281 kts | 318° |
| 2026-04-23 22:14 | 9.47243 | -60.44239 | 23919 ft | 281 kts | 318° |
| 2026-04-23 22:15 | 9.48670 | -60.45596 | 23918 ft | 281 kts | 318° |
| 2026-04-23 22:15 | 9.50075 | -60.46932 | 23918 ft | 281 kts | 319° |
| 2026-04-23 22:15 | 9.51504 | -60.48289 | 23919 ft | 281 kts | 318° |
| 2026-04-23 22:15 | 9.52934 | -60.49648 | 23917 ft | 281 kts | 318° |
| 2026-04-23 22:16 | 9.54363 | -60.51008 | 23919 ft | 282 kts | 318° |
| 2026-04-23 22:16 | 9.55799 | -60.52373 | 23914 ft | 282 kts | 318° |
| 2026-04-23 22:16 | 9.57215 | -60.53720 | 23916 ft | 282 kts | 318° |
| 2026-04-23 22:16 | 9.58650 | -60.55084 | 23917 ft | 282 kts | 318° |
| 2026-04-23 22:17 | 9.60087 | -60.56452 | 23918 ft | 283 kts | 318° |
| 2026-04-23 22:17 | 9.61036 | -60.57356 | 23920 ft | 283 kts | 318° |
| 2026-04-23 22:17 | 9.62475 | -60.58724 | 23920 ft | 283 kts | 319° |
| 2026-04-23 22:17 | 9.63899 | -60.60077 | 23920 ft | 283 kts | 318° |
| 2026-04-23 22:18 | 9.65335 | -60.61444 | 23921 ft | 283 kts | 318° |
| 2026-04-23 22:18 | 9.66773 | -60.62813 | 23922 ft | 283 kts | 318° |
| 2026-04-23 22:18 | 9.68208 | -60.64179 | 23923 ft | 283 kts | 318° |
| 2026-04-23 22:18 | 9.69649 | -60.65551 | 23923 ft | 283 kts | 318° |
| 2026-04-23 22:19 | 9.71088 | -60.66923 | 23920 ft | 283 kts | 318° |
| 2026-04-23 22:19 | 9.72524 | -60.68291 | 23919 ft | 283 kts | 318° |
| 2026-04-23 22:19 | 9.73948 | -60.69648 | 23920 ft | 283 kts | 318° |
| 2026-04-23 22:19 | 9.75390 | -60.71020 | 23920 ft | 283 kts | 319° |
| 2026-04-23 22:20 | 9.76830 | -60.72392 | 23923 ft | 283 kts | 318° |
| 2026-04-23 22:20 | 9.78250 | -60.73745 | 23922 ft | 283 kts | 318° |
| 2026-04-23 22:20 | 9.79687 | -60.75115 | 23924 ft | 284 kts | 318° |
| 2026-04-23 22:20 | 9.81125 | -60.76486 | 23922 ft | 284 kts | 317° |
| 2026-04-23 22:21 | 9.82566 | -60.77859 | 23917 ft | 284 kts | 317° |
| 2026-04-23 22:21 | 9.84012 | -60.79238 | 23918 ft | 285 kts | 317° |
| 2026-04-23 22:21 | 9.85454 | -60.80613 | 23918 ft | 285 kts | 317° |
| 2026-04-23 22:21 | 9.86903 | -60.81995 | 23920 ft | 285 kts | 317° |
| 2026-04-23 22:22 | 9.88356 | -60.83380 | 23918 ft | 285 kts | 317° |
| 2026-04-23 22:22 | 9.89784 | -60.84743 | 23926 ft | 286 kts | 317° |
| 2026-04-23 22:22 | 9.91235 | -60.86127 | 23927 ft | 286 kts | 317° |
| 2026-04-23 22:22 | 9.92688 | -60.87513 | 23924 ft | 286 kts | 318° |
| 2026-04-23 22:23 | 9.94162 | -60.88916 | 23668 ft | 296 kts | 318° |
| 2026-04-23 22:23 | 9.95689 | -60.90343 | 23314 ft | 299 kts | 319° |
| 2026-04-23 22:23 | 9.97198 | -60.91746 | 22929 ft | 297 kts | 319° |
| 2026-04-23 22:23 | 9.98709 | -60.93167 | 22543 ft | 294 kts | 319° |
| 2026-04-23 22:24 | 10.00195 | -60.94584 | 22163 ft | 292 kts | 318° |
| 2026-04-23 22:24 | 10.01674 | -60.95997 | 21787 ft | 290 kts | 318° |
| 2026-04-23 22:24 | 10.03138 | -60.97403 | 21369 ft | 289 kts | 318° |
| 2026-04-23 22:24 | 10.04599 | -60.98804 | 20925 ft | 289 kts | 317° |
| 2026-04-23 22:25 | 10.06046 | -61.00190 | 20478 ft | 288 kts | 318° |
| 2026-04-23 22:25 | 10.07510 | -61.01592 | 20030 ft | 288 kts | 318° |
| 2026-04-23 22:25 | 10.08963 | -61.02982 | 19589 ft | 286 kts | 318° |
| 2026-04-23 22:25 | 10.10410 | -61.04365 | 19156 ft | 285 kts | 317° |
| 2026-04-23 22:26 | 10.11851 | -61.05738 | 18728 ft | 282 kts | 317° |
| 2026-04-23 22:26 | 10.13260 | -61.07085 | 18314 ft | 280 kts | 317° |
| 2026-04-23 22:26 | 10.14674 | -61.08437 | 17837 ft | 277 kts | 317° |
| 2026-04-23 22:26 | 10.16063 | -61.09788 | 17346 ft | 274 kts | 316° |
| 2026-04-23 22:27 | 10.17417 | -61.11112 | 16873 ft | 272 kts | 316° |
| 2026-04-23 22:27 | 10.18777 | -61.12430 | 16406 ft | 269 kts | 317° |
| 2026-04-23 22:27 | 10.20127 | -61.13732 | 15941 ft | 266 kts | 316° |
| 2026-04-23 22:27 | 10.21463 | -61.15014 | 15486 ft | 263 kts | 316° |
| 2026-04-23 22:28 | 10.22784 | -61.16279 | 15037 ft | 260 kts | 316° |
| 2026-04-23 22:28 | 10.24101 | -61.17540 | 14590 ft | 257 kts | 315° |
| 2026-04-23 22:28 | 10.25378 | -61.18764 | 14160 ft | 254 kts | 316° |
| 2026-04-23 22:28 | 10.26660 | -61.19990 | 13730 ft | 251 kts | 316° |
| 2026-04-23 22:29 | 10.27932 | -61.21205 | 13239 ft | 249 kts | 316° |
| 2026-04-23 22:29 | 10.29171 | -61.22392 | 12766 ft | 247 kts | 316° |
| 2026-04-23 22:29 | 10.30413 | -61.23581 | 12291 ft | 245 kts | 316° |
| 2026-04-23 22:29 | 10.31650 | -61.24765 | 11832 ft | 243 kts | 316° |
| 2026-04-23 22:30 | 10.32877 | -61.25941 | 11380 ft | 241 kts | 316° |
| 2026-04-23 22:30 | 10.34095 | -61.27109 | 10924 ft | 240 kts | 316° |
| 2026-04-23 22:30 | 10.35306 | -61.28269 | 10484 ft | 238 kts | 316° |
| 2026-04-23 22:30 | 10.36510 | -61.29423 | 10046 ft | 237 kts | 316° |
| 2026-04-23 22:31 | 10.37710 | -61.30572 | 9589 ft | 236 kts | 317° |
| 2026-04-23 22:31 | 10.38885 | -61.31698 | 9115 ft | 234 kts | 317° |
| 2026-04-23 22:31 | 10.40070 | -61.32831 | 8638 ft | 233 kts | 317° |
| 2026-04-23 22:31 | 10.41245 | -61.33963 | 8170 ft | 232 kts | 316° |
| 2026-04-23 22:32 | 10.42391 | -61.35110 | 7705 ft | 230 kts | 315° |
| 2026-04-23 22:32 | 10.43506 | -61.36266 | 7251 ft | 229 kts | 314° |
| 2026-04-23 22:32 | 10.44609 | -61.37436 | 6804 ft | 230 kts | 312° |
| 2026-04-23 22:32 | 10.45533 | -61.38776 | 6364 ft | 233 kts | 303° |
| 2026-04-23 22:33 | 10.46365 | -61.40199 | 5897 ft | 234 kts | 300° |
| 2026-04-23 22:33 | 10.47156 | -61.41613 | 5433 ft | 232 kts | 300° |
| 2026-04-23 22:33 | 10.47944 | -61.43051 | 4985 ft | 231 kts | 300° |
| 2026-04-23 22:33 | 10.48720 | -61.44482 | 4555 ft | 230 kts | 299° |
| 2026-04-23 22:34 | 10.49472 | -61.45881 | 4314 ft | 221 kts | 299° |
| 2026-04-23 22:34 | 10.50217 | -61.47202 | 4191 ft | 209 kts | 309° |
| 2026-04-23 22:34 | 10.51416 | -61.47872 | 4147 ft | 195 kts | 359° |
| 2026-04-23 22:34 | 10.52674 | -61.47566 | 4075 ft | 188 kts | 23° |
| 2026-04-23 22:35 | 10.53903 | -61.47064 | 3887 ft | 191 kts | 25° |
| 2026-04-23 22:35 | 10.55144 | -61.46518 | 3561 ft | 192 kts | 27° |
| 2026-04-23 22:35 | 10.56270 | -61.46002 | 3202 ft | 164 kts | 28° |
| 2026-04-23 22:35 | 10.57252 | -61.45564 | 2828 ft | 149 kts | 27° |
| 2026-04-23 22:36 | 10.58050 | -61.44993 | 2468 ft | 136 kts | 57° |
| 2026-04-23 22:36 | 10.58584 | -61.44237 | 2193 ft | 126 kts | 57° |
| 2026-04-23 22:36 | 10.59062 | -61.43486 | 1817 ft | 126 kts | 66° |
| 2026-04-23 22:36 | 10.59307 | -61.42662 | 1572 ft | 118 kts | 78° |
| 2026-04-23 22:37 | 10.59456 | -61.41862 | 1289 ft | 116 kts | 79° |
| 2026-04-23 22:37 | 10.59506 | -61.41067 | 1063 ft | 108 kts | 87° |
| 2026-04-23 22:37 | 10.59516 | -61.40333 | 951 ft | 103 kts | 87° |
| 2026-04-23 22:37 | 10.59535 | -61.39561 | 876 ft | 114 kts | 89° |
| 2026-04-23 22:38 | 10.59521 | -61.38755 | 757 ft | 110 kts | 89° |
| 2026-04-23 22:38 | 10.59526 | -61.37993 | 642 ft | 108 kts | 90° |
| 2026-04-23 22:38 | 10.59530 | -61.37235 | 466 ft | 101 kts | 92° |
| 2026-04-23 22:38 | 10.59531 | -61.36617 | 379 ft | 81 kts | 91° |
| 2026-04-23 22:39 | 10.59536 | -61.36058 | 240 ft | 76 kts | 89° |
| 2026-04-23 22:39 | 10.59532 | -61.35506 | 136 ft | 79 kts | 90° |
| 2026-04-23 22:39 | 10.59535 | -61.34945 | 39 ft | 78 kts | 90° |
| 2026-04-23 22:39 | 10.59535 | -61.34457 | 34 ft | 52 kts | 90° |
| 2026-04-23 22:40 | 10.59537 | -61.34221 | 37 ft | 19 kts | 90° |
| 2026-04-23 22:40 | 10.59536 | -61.34092 | 37 ft | 22 kts | 88° |
| 2026-04-23 22:40 | 10.59469 | -61.34013 | 37 ft | 13 kts | 230° |
| 2026-04-23 22:41 | 10.59420 | -61.34068 | 38 ft | 6 kts | 228° |
| 2026-04-23 22:41 | 10.59397 | -61.34097 | 37 ft | 6 kts | 232° |
| 2026-04-23 22:41 | 10.59381 | -61.34136 | 37 ft | 7 kts | 267° |
| 2026-04-23 22:41 | 10.59384 | -61.34198 | 37 ft | 12 kts | 271° |
| 2026-04-23 22:42 | 10.59383 | -61.34309 | 36 ft | 20 kts | 266° |
| 2026-04-23 22:42 | 10.59386 | -61.34485 | 34 ft | 27 kts | 271° |
| 2026-04-23 22:42 | 10.59409 | -61.34630 | 33 ft | 15 kts | 270° |
| 2026-04-23 22:42 | 10.59393 | -61.34720 | 32 ft | 15 kts | 253° |
| 2026-04-23 22:43 | 10.59351 | -61.34861 | 31 ft | 26 kts | 258° |
| 2026-04-23 22:43 | 10.59357 | -61.35055 | 29 ft | 25 kts | 269° |
| 2026-04-23 22:43 | 10.59377 | -61.35179 | 27 ft | 13 kts | 319° |
| 2026-04-23 22:43 | 10.59455 | -61.35193 | 27 ft | 13 kts | 8° |
| 2026-04-23 22:44 | 10.59539 | -61.35141 | 28 ft | 16 kts | 30° |
| 2026-04-23 22:44 | 10.59628 | -61.35084 | 28 ft | 12 kts | 72° |
| 2026-04-23 22:44 | 10.59640 | -61.35005 | 29 ft | 9 kts | 18° |
| 2026-04-23 22:44 | 10.59677 | -61.35026 | 29 ft | 0 kts | 246° |
| 2026-04-23 22:59 | 10.59677 | -61.35025 | 29 ft | 0 kts | 246° |
| 2026-04-23 23:22 | 10.59677 | -61.35024 | 1 ft | 0 kts | 246° |
| 2026-04-23 23:23 | 10.59678 | -61.35024 | 1 ft | 0 kts | 246° |